Terminal Aerodrome Forecast
Issued by NWS Jackson, MS

Home | Current Version | Previous Version | Text Only | Print | Product List | Glossary On
Versions: 1 2 3 4 5 6 7 8 9 10 11 12 13
572
FTUS44 KJAN 181133
TAFJAN
TAF
KJAN 181133Z 1812/1912 19013G24KT P6SM BKN007
     FM181300 19017G29KT P6SM OVC025
     FM182100 22016G28KT P6SM VCSH OVC025
     FM182300 29015G27KT P6SM VCSH BKN025
     FM190200 32018G32KT P6SM BKN035=

USA.gov is the U.S. government's official web portal to all federal, state and local government web resources and services.